Time;durP1;ratioP1;P1;durP2;ratioP2;P2;SDS_P1;SDS_P2;PMS_P1;PMS_P2;Temp;Humidity;BMP_temperature;BMP_pressure;BME280_temperature;BME280_humidity;BME280_pressure;Samples;Min_cycle;Max_cycle;Signal;HPM_P1;HPM_P2
2023/01/28 00:02:07;;;;;;;19.90;12.45;;;;;;;;;;5033832;28;20248;-76
2023/01/28 00:04:35;;;;;;;19.77;11.95;;;;;;;;;;5034342;28;20732;-76
2023/01/28 00:07:03;;;;;;;23.80;13.18;;;;;;;;;;5044969;28;20528;-76
2023/01/28 00:09:30;;;;;;;22.80;12.48;;;;;;;;;;5034101;28;20191;-76
2023/01/28 00:12:00;;;;;;;20.77;12.50;;;;;;;;;;5050747;28;20596;-76
2023/01/28 00:14:27;;;;;;;20.55;11.48;;;;;;;;;;5054155;28;20221;-76
2023/01/28 00:16:55;;;;;;;20.13;12.82;;;;;;;;;;5047477;28;20246;-76
2023/01/28 00:19:22;;;;;;;19.15;12.82;;;;;;;;;;5033190;28;20441;-78
2023/01/28 00:21:50;;;;;;;22.38;14.88;;;;;;;;;;5045836;28;20179;-76
2023/01/28 00:24:17;;;;;;;22.60;12.77;;;;;;;;;;5035143;28;20199;-77
2023/01/28 00:26:45;;;;;;;20.80;12.55;;;;;;;;;;5037616;28;20187;-77
2023/01/28 00:29:14;;;;;;;24.48;12.30;;;;;;;;;;5054866;28;20656;-77
2023/01/28 00:31:41;;;;;;;25.88;15.07;;;;;;;;;;5051488;28;20700;-78
2023/01/28 00:34:10;;;;;;;20.02;12.32;;;;;;;;;;5054755;28;20280;-77
2023/01/28 00:36:39;;;;;;;19.77;12.57;;;;;;;;;;5048518;28;20190;-77
2023/01/28 00:39:07;;;;;;;20.55;12.90;;;;;;;;;;5034139;28;20244;-76
2023/01/28 00:41:36;;;;;;;22.55;12.30;;;;;;;;;;5039655;28;20265;-77
2023/01/28 00:44:03;;;;;;;21.27;11.88;;;;;;;;;;5054648;28;20186;-77
2023/01/28 00:46:32;;;;;;;17.35;11.75;;;;;;;;;;5065522;28;20283;-77
2023/01/28 00:49:00;;;;;;;18.13;12.25;;;;;;;;;;5054121;28;20194;-77
2023/01/28 00:51:28;;;;;;;21.13;11.48;;;;;;;;;;5059289;28;20205;-77
2023/01/28 00:53:55;;;;;;;20.13;11.30;;;;;;;;;;5074826;28;20320;-77
2023/01/28 00:56:23;;;;;;;23.42;12.65;;;;;;;;;;5068788;28;20633;-77
2023/01/28 00:58:51;;;;;;;20.45;11.75;;;;;;;;;;5054040;28;20264;-77
2023/01/28 01:01:19;;;;;;;19.98;12.55;;;;;;;;;;5058773;28;20694;-77
2023/01/28 01:03:56;;;;;;;18.10;10.68;;;;;;;;;;5074390;28;20607;-77
2023/01/28 01:06:24;;;;;;;18.88;11.30;;;;;;;;;;5068456;28;20186;-77
2023/01/28 01:08:52;;;;;;;20.80;12.32;;;;;;;;;;5053932;28;20529;-77
2023/01/28 01:11:19;;;;;;;20.10;12.10;;;;;;;;;;5058609;28;20193;-77
2023/01/28 01:13:51;;;;;;;20.77;12.30;;;;;;;;;;5073958;28;20239;-76
2023/01/28 01:16:18;;;;;;;21.45;13.05;;;;;;;;;;5069222;28;20270;-77
2023/01/28 01:18:46;;;;;;;19.83;12.43;;;;;;;;;;5053436;28;20210;-78
2023/01/28 01:21:19;;;;;;;22.90;12.35;;;;;;;;;;5057056;28;20182;-77
2023/01/28 01:23:47;;;;;;;17.48;11.52;;;;;;;;;;5073737;28;20189;-78
2023/01/28 01:26:15;;;;;;;19.67;12.93;;;;;;;;;;5070281;28;20218;-77
2023/01/28 01:28:43;;;;;;;18.60;12.15;;;;;;;;;;5053997;28;20601;-77
2023/01/28 01:31:13;;;;;;;16.98;11.18;;;;;;;;;;5056086;28;20644;-77
2023/01/28 01:33:41;;;;;;;20.60;12.27;;;;;;;;;;5073614;28;20198;-78
2023/01/28 01:36:09;;;;;;;20.73;13.90;;;;;;;;;;5070758;28;20194;-77
2023/01/28 01:38:39;;;;;;;20.70;12.25;;;;;;;;;;5053341;28;20218;-77
2023/01/28 01:41:07;;;;;;;21.80;13.02;;;;;;;;;;5055406;28;20226;-77
2023/01/28 01:43:48;;;;;;;20.55;13.68;;;;;;;;;;5073512;28;20189;-77
2023/01/28 01:46:18;;;;;;;22.15;11.55;;;;;;;;;;5068855;28;20218;-77
2023/01/28 01:48:46;;;;;;;18.73;12.68;;;;;;;;;;5053481;28;20197;-77
2023/01/28 01:51:14;;;;;;;18.83;12.65;;;;;;;;;;5054701;28;20274;-78
2023/01/28 01:53:44;;;;;;;19.88;12.45;;;;;;;;;;5072977;28;20185;-78
2023/01/28 01:56:14;;;;;;;21.67;11.95;;;;;;;;;;5070622;28;20279;-77
2023/01/28 01:58:43;;;;;;;25.08;14.38;;;;;;;;;;5052900;28;20222;-77
2023/01/28 02:01:12;;;;;;;22.02;13.45;;;;;;;;;;5054896;28;20190;-77
2023/01/28 02:03:44;;;;;;;19.52;11.98;;;;;;;;;;5072308;28;20672;-77
2023/01/28 02:06:12;;;;;;;18.40;12.60;;;;;;;;;;5054141;28;20538;-77
2023/01/28 02:08:39;;;;;;;21.55;12.50;;;;;;;;;;5052921;28;20225;-76
2023/01/28 02:11:09;;;;;;;18.45;11.65;;;;;;;;;;5068922;28;20280;-75
2023/01/28 02:13:39;;;;;;;21.33;12.23;;;;;;;;;;5072770;28;20200;-76
2023/01/28 02:16:07;;;;;;;18.20;10.75;;;;;;;;;;5055868;28;20209;-76
2023/01/28 02:18:35;;;;;;;21.35;12.52;;;;;;;;;;5052467;28;20240;-76
2023/01/28 02:21:19;;;;;;;18.90;11.10;;;;;;;;;;5067088;28;20379;-76
2023/01/28 02:23:56;;;;;;;19.58;13.00;;;;;;;;;;5064710;28;20263;-76
2023/01/28 02:26:36;;;;;;;20.92;11.82;;;;;;;;;;5052750;28;20194;-77
2023/01/28 02:29:09;;;;;;;18.67;11.90;;;;;;;;;;5061611;28;20188;-76
2023/01/28 02:31:41;;;;;;;22.98;12.40;;;;;;;;;;5059345;28;20183;-76
2023/01/28 02:34:13;;;;;;;18.77;11.23;;;;;;;;;;5061917;28;20190;-76
2023/01/28 02:36:43;;;;;;;16.02;11.10;;;;;;;;;;5072364;28;20229;-76
2023/01/28 02:39:14;;;;;;;15.70;10.38;;;;;;;;;;5062501;28;20226;-76
2023/01/28 02:41:43;;;;;;;22.33;12.57;;;;;;;;;;5052316;28;20659;-76
2023/01/28 02:44:13;;;;;;;18.45;12.00;;;;;;;;;;5060749;28;20186;-77
2023/01/28 02:49:29;;;;;;;23.88;11.95;;;;;;;;;;5052612;28;20189;-76
2023/01/28 02:52:10;;;;;;;18.75;10.95;;;;;;;;;;5052176;28;20691;-78
2023/01/28 02:54:42;;;;;;;21.90;11.05;;;;;;;;;;5071297;28;20553;-77
2023/01/28 02:57:14;;;;;;;21.38;12.25;;;;;;;;;;5070110;28;20645;-77
2023/01/28 02:59:48;;;;;;;18.40;10.40;;;;;;;;;;5071539;28;20388;-77
2023/01/28 03:02:19;;;;;;;20.85;12.27;;;;;;;;;;5058040;28;20182;-77
2023/01/28 03:04:48;;;;;;;17.23;9.88;;;;;;;;;;5052001;28;20198;-77
2023/01/28 03:07:17;;;;;;;23.30;12.80;;;;;;;;;;5064470;28;20190;-77
2023/01/28 03:09:45;;;;;;;17.35;10.52;;;;;;;;;;5071760;28;20190;-77
2023/01/28 03:37:14;;;;;;;20.27;12.88;;;;;;;;;;5062133;28;20705;-77
2023/01/28 03:39:42;;;;;;;16.77;11.77;;;;;;;;;;5051804;28;20194;-77
2023/01/28 03:42:10;;;;;;;18.00;11.32;;;;;;;;;;5051844;28;20273;-77
2023/01/28 03:44:54;;;;;;;21.02;12.30;;;;;;;;;;5051773;28;20196;-77
2023/01/28 03:47:23;;;;;;;19.13;10.27;;;;;;;;;;5060395;28;20189;-77
2023/01/28 03:49:52;;;;;;;19.33;10.80;;;;;;;;;;5071748;28;20201;-77
2023/01/28 03:52:21;;;;;;;19.63;11.52;;;;;;;;;;5062686;28;20183;-77
2023/01/28 03:54:49;;;;;;;16.70;11.73;;;;;;;;;;5051499;28;20187;-77
2023/01/28 03:57:16;;;;;;;21.80;12.13;;;;;;;;;;5058617;28;20299;-77
2023/01/28 03:59:44;;;;;;;19.83;11.23;;;;;;;;;;5071365;28;20309;-77
2023/01/28 04:02:12;;;;;;;18.58;10.57;;;;;;;;;;5064909;28;20318;-77
2023/01/28 04:04:41;;;;;;;22.00;12.90;;;;;;;;;;5051139;28;20649;-77
2023/01/28 04:07:10;;;;;;;19.13;12.60;;;;;;;;;;5056285;28;20186;-77
2023/01/28 04:09:38;;;;;;;18.70;12.40;;;;;;;;;;5071573;28;20276;-77
2023/01/28 04:12:06;;;;;;;17.05;11.13;;;;;;;;;;5066627;28;20277;-77
2023/01/28 04:14:34;;;;;;;18.52;12.15;;;;;;;;;;5054388;28;20190;-77
2023/01/28 04:17:02;;;;;;;19.35;11.43;;;;;;;;;;5058022;28;20185;-77
2023/01/28 04:19:36;;;;;;;21.85;12.88;;;;;;;;;;5075000;28;20225;-77
2023/01/28 04:22:06;;;;;;;19.45;11.10;;;;;;;;;;5071476;28;20194;-77
2023/01/28 04:24:34;;;;;;;20.55;11.88;;;;;;;;;;5054876;28;20190;-77
2023/01/28 04:27:02;;;;;;;22.63;11.75;;;;;;;;;;5056681;28;20301;-77
2023/01/28 04:29:30;;;;;;;18.63;12.48;;;;;;;;;;5074761;28;20550;-77
2023/01/28 04:31:58;;;;;;;19.73;12.13;;;;;;;;;;5073469;28;20190;-77
2023/01/28 04:34:25;;;;;;;20.05;11.95;;;;;;;;;;5054801;28;20209;-77
2023/01/28 04:36:53;;;;;;;18.80;12.00;;;;;;;;;;5054315;28;20281;-77
2023/01/28 04:39:22;;;;;;;21.17;12.77;;;;;;;;;;5054942;28;20264;-77
2023/01/28 04:41:50;;;;;;;24.55;13.48;;;;;;;;;;5054808;28;20221;-77
2023/01/28 04:44:17;;;;;;;18.25;12.18;;;;;;;;;;5073085;28;20200;-77
2023/01/28 04:46:45;;;;;;;21.58;12.70;;;;;;;;;;5074626;28;20757;-77
2023/01/28 04:49:13;;;;;;;28.83;14.02;;;;;;;;;;5055600;28;20195;-77
2023/01/28 04:51:40;;;;;;;20.75;12.48;;;;;;;;;;5054502;28;20194;-77
2023/01/28 04:54:08;;;;;;;22.77;13.85;;;;;;;;;;5066181;28;20185;-77
2023/01/28 04:56:37;;;;;;;21.63;14.00;;;;;;;;;;5054249;28;20194;-77
2023/01/28 04:59:05;;;;;;;21.48;13.13;;;;;;;;;;5054088;28;20217;-77
2023/01/28 05:01:32;;;;;;;22.67;13.18;;;;;;;;;;5069725;28;20221;-77
2023/01/28 05:04:04;;;;;;;19.05;11.82;;;;;;;;;;5073749;28;20182;-77
2023/01/28 05:06:32;;;;;;;25.92;16.10;;;;;;;;;;5057570;28;20187;-77
2023/01/28 05:08:59;;;;;;;22.52;14.48;;;;;;;;;;5053997;28;20199;-77
2023/01/28 05:11:27;;;;;;;23.83;13.23;;;;;;;;;;5067787;28;20694;-77
2023/01/28 05:13:56;;;;;;;22.30;12.73;;;;;;;;;;5073879;28;20272;-77
2023/01/28 05:16:24;;;;;;;27.50;14.70;;;;;;;;;;5060663;28;20197;-77
2023/01/28 05:18:52;;;;;;;21.25;12.93;;;;;;;;;;5053811;28;20300;-77
2023/01/28 05:21:19;;;;;;;23.52;13.07;;;;;;;;;;5065222;28;20589;-77
2023/01/28 05:23:47;;;;;;;21.85;12.20;;;;;;;;;;5073214;28;20186;-77
2023/01/28 05:26:15;;;;;;;22.77;13.30;;;;;;;;;;5061841;28;20191;-77
2023/01/28 05:28:42;;;;;;;23.33;13.07;;;;;;;;;;5053948;28;20190;-77
2023/01/28 05:31:12;;;;;;;19.67;12.95;;;;;;;;;;5062989;28;20652;-78
2023/01/28 05:33:40;;;;;;;25.63;15.57;;;;;;;;;;5073073;28;20186;-77
2023/01/28 05:36:08;;;;;;;21.40;12.77;;;;;;;;;;5064586;28;20201;-78
2023/01/28 05:38:35;;;;;;;21.50;13.35;;;;;;;;;;5053195;28;20242;-78
2023/01/28 05:41:03;;;;;;;22.27;13.05;;;;;;;;;;5060070;28;20656;-77
2023/01/28 05:43:30;;;;;;;24.27;12.57;;;;;;;;;;5073027;28;20216;-77
2023/01/28 05:45:58;;;;;;;22.85;13.93;;;;;;;;;;5066887;28;20214;-77
2023/01/28 05:48:27;;;;;;;23.90;12.15;;;;;;;;;;5053916;28;20199;-77
2023/01/28 05:50:54;;;;;;;21.25;12.70;;;;;;;;;;5057959;28;20192;-77
2023/01/28 05:53:22;;;;;;;23.38;12.90;;;;;;;;;;5072906;28;20273;-78
2023/01/28 05:55:50;;;;;;;19.40;12.13;;;;;;;;;;5068667;28;20332;-77
2023/01/28 05:58:18;;;;;;;25.00;12.77;;;;;;;;;;5053091;28;20198;-77
2023/01/28 06:00:46;;;;;;;21.77;12.82;;;;;;;;;;5055383;28;20186;-76
2023/01/28 06:03:13;;;;;;;25.27;12.35;;;;;;;;;;5072491;28;20213;-77
2023/01/28 06:05:42;;;;;;;22.10;14.05;;;;;;;;;;5070981;28;20281;-77
2023/01/28 06:08:10;;;;;;;23.98;12.38;;;;;;;;;;5051862;28;20198;-78
2023/01/28 06:10:37;;;;;;;19.15;12.82;;;;;;;;;;5053317;28;20285;-77
2023/01/28 06:13:05;;;;;;;31.02;15.95;;;;;;;;;;5072613;28;20274;-77
2023/01/28 06:15:33;;;;;;;33.03;17.33;;;;;;;;;;5071915;28;20193;-77
2023/01/28 06:18:00;;;;;;;25.88;16.02;;;;;;;;;;5072117;28;20647;-77
2023/01/28 06:20:28;;;;;;;22.73;12.93;;;;;;;;;;5072558;28;20559;-76
2023/01/28 06:22:57;;;;;;;21.73;13.20;;;;;;;;;;5053387;28;20676;-76
2023/01/28 06:25:25;;;;;;;20.45;11.75;;;;;;;;;;5052761;28;20665;-77
2023/01/28 06:27:52;;;;;;;21.05;11.70;;;;;;;;;;5069726;28;20190;-77
2023/01/28 06:30:20;;;;;;;18.00;11.85;;;;;;;;;;5072453;28;20200;-77
2023/01/28 06:32:48;;;;;;;17.10;11.07;;;;;;;;;;5055668;28;20224;-76
2023/01/28 06:35:15;;;;;;;18.77;11.70;;;;;;;;;;5052416;28;20191;-77
2023/01/28 06:37:44;;;;;;;20.90;13.32;;;;;;;;;;5066866;28;20193;-77
2023/01/28 06:40:13;;;;;;;20.15;11.43;;;;;;;;;;5072194;28;20718;-77
2023/01/28 06:42:41;;;;;;;18.08;11.90;;;;;;;;;;5057486;28;20269;-77
2023/01/28 06:45:09;;;;;;;21.08;11.73;;;;;;;;;;5052120;28;20248;-77
2023/01/28 06:47:36;;;;;;;19.85;10.45;;;;;;;;;;5065126;28;20185;-77
2023/01/28 06:50:04;;;;;;;20.15;12.80;;;;;;;;;;5072317;28;20192;-77
2023/01/28 06:52:32;;;;;;;18.05;12.40;;;;;;;;;;5059824;28;20560;-77
2023/01/28 06:55:00;;;;;;;20.45;13.30;;;;;;;;;;5052434;28;20601;-78
2023/01/28 06:57:29;;;;;;;23.70;14.20;;;;;;;;;;5062425;28;20190;-77
2023/01/28 06:59:57;;;;;;;26.42;15.90;;;;;;;;;;5072039;28;20218;-77
2023/01/28 07:02:25;;;;;;;22.80;13.32;;;;;;;;;;5061244;28;20202;-78
2023/01/28 07:04:52;;;;;;;26.27;15.82;;;;;;;;;;5052184;28;20230;-77
2023/01/28 07:07:20;;;;;;;24.23;14.95;;;;;;;;;;5061106;28;20531;-78
2023/01/28 07:09:47;;;;;;;39.03;20.77;;;;;;;;;;5072161;28;20358;-77
2023/01/28 07:12:15;;;;;;;33.25;19.98;;;;;;;;;;5063837;28;20186;-77
2023/01/28 07:14:44;;;;;;;35.13;17.08;;;;;;;;;;5063650;28;20236;-77
2023/01/28 07:17:11;;;;;;;29.13;17.00;;;;;;;;;;5065023;28;20198;-78
2023/01/28 07:19:39;;;;;;;26.50;16.08;;;;;;;;;;5051984;28;20560;-77
2023/01/28 07:22:06;;;;;;;27.13;15.45;;;;;;;;;;5057580;28;20185;-77
2023/01/28 07:24:34;;;;;;;28.60;17.35;;;;;;;;;;5071837;28;20190;-78
2023/01/28 07:27:02;;;;;;;30.83;19.23;;;;;;;;;;5066562;28;20182;-77
2023/01/28 07:29:30;;;;;;;41.63;23.20;;;;;;;;;;5052041;28;20683;-76
2023/01/28 07:31:59;;;;;;;25.52;16.00;;;;;;;;;;5055412;28;20552;-77
2023/01/28 07:34:26;;;;;;;23.38;16.45;;;;;;;;;;5071813;28;20189;-77
2023/01/28 07:36:54;;;;;;;18.80;12.48;;;;;;;;;;5069157;28;20190;-77
2023/01/28 07:39:22;;;;;;;20.15;14.05;;;;;;;;;;5051848;28;21035;-78
2023/01/28 07:41:49;;;;;;;20.58;11.93;;;;;;;;;;5052909;28;20190;-77
2023/01/28 07:44:17;;;;;;;19.45;11.25;;;;;;;;;;5070923;28;20710;-78
2023/01/28 07:46:47;;;;;;;27.27;16.17;;;;;;;;;;5071206;28;20536;-77
2023/01/28 07:49:17;;;;;;;27.00;17.85;;;;;;;;;;5074417;28;20629;-79
2023/01/28 07:51:45;;;;;;;41.33;22.98;;;;;;;;;;5075073;28;20671;-77
2023/01/28 07:54:13;;;;;;;30.95;19.55;;;;;;;;;;5068521;28;20237;-78
2023/01/28 07:56:41;;;;;;;26.20;16.75;;;;;;;;;;5055915;28;20198;-77
2023/01/28 07:59:08;;;;;;;22.92;12.95;;;;;;;;;;5074613;28;20240;-78
2023/01/28 08:01:36;;;;;;;25.63;16.13;;;;;;;;;;5075497;28;20193;-78
2023/01/28 08:04:03;;;;;;;38.17;22.85;;;;;;;;;;5056697;28;20273;-77
2023/01/28 08:06:36;;;;;;;26.95;13.77;;;;;;;;;;5055362;28;20645;-77
2023/01/28 08:09:07;;;;;;;20.02;12.70;;;;;;;;;;5072578;28;20281;-77
2023/01/28 08:11:35;;;;;;;20.15;12.07;;;;;;;;;;5075433;28;20221;-76
2023/01/28 08:14:02;;;;;;;22.63;14.25;;;;;;;;;;5057927;28;20240;-77
2023/01/28 08:16:30;;;;;;;19.77;12.07;;;;;;;;;;5070228;28;20220;-77
2023/01/28 08:18:58;;;;;;;19.35;12.38;;;;;;;;;;5055374;28;20194;-76
2023/01/28 08:21:25;;;;;;;23.88;13.98;;;;;;;;;;5054595;28;20236;-77
2023/01/28 08:23:55;;;;;;;18.65;12.52;;;;;;;;;;5055937;28;20711;-78
2023/01/28 08:26:23;;;;;;;20.85;13.52;;;;;;;;;;5067387;28;20293;-78
2023/01/28 08:28:50;;;;;;;25.00;13.13;;;;;;;;;;5069150;28;20270;-79
2023/01/28 08:31:18;;;;;;;24.55;14.48;;;;;;;;;;5072449;28;20194;-78
2023/01/28 08:33:45;;;;;;;23.58;12.65;;;;;;;;;;5067184;28;20186;-77
2023/01/28 08:36:14;;;;;;;19.02;11.63;;;;;;;;;;5064247;28;20181;-78
2023/01/28 08:38:42;;;;;;;17.85;9.80;;;;;;;;;;5067339;28;20186;-77
2023/01/28 08:41:12;;;;;;;19.58;11.57;;;;;;;;;;5070164;28;20255;-76
2023/01/28 08:43:39;;;;;;;20.20;13.40;;;;;;;;;;5070909;28;20192;-77
2023/01/28 08:46:07;;;;;;;20.95;12.48;;;;;;;;;;5062575;28;20217;-75
2023/01/28 08:48:35;;;;;;;18.88;11.35;;;;;;;;;;5053971;28;20205;-77
2023/01/28 08:51:02;;;;;;;18.88;11.25;;;;;;;;;;5053922;28;20551;-77
2023/01/28 08:53:30;;;;;;;23.70;13.70;;;;;;;;;;5054414;28;20198;-78
2023/01/28 08:55:58;;;;;;;21.35;11.88;;;;;;;;;;5053538;28;20572;-77
2023/01/28 08:58:27;;;;;;;31.23;15.15;;;;;;;;;;5057424;28;20283;-77
2023/01/28 09:00:54;;;;;;;21.77;14.27;;;;;;;;;;5053744;28;20273;-78
2023/01/28 09:03:22;;;;;;;24.92;14.57;;;;;;;;;;5053762;28;20619;-78
2023/01/28 09:05:50;;;;;;;32.42;15.25;;;;;;;;;;5070395;28;20198;-79
2023/01/28 09:08:22;;;;;;;23.88;13.55;;;;;;;;;;5071679;28;20273;-78
2023/01/28 09:10:55;;;;;;;32.33;18.25;;;;;;;;;;5071548;28;20278;-78
2023/01/28 09:13:23;;;;;;;19.55;12.77;;;;;;;;;;5053741;28;20197;-79
2023/01/28 09:15:52;;;;;;;19.35;11.60;;;;;;;;;;5059394;28;20595;-79
2023/01/28 09:18:20;;;;;;;21.13;13.43;;;;;;;;;;5057485;28;20697;-78
2023/01/28 09:20:47;;;;;;;23.20;13.43;;;;;;;;;;5068664;28;20217;-77
2023/01/28 09:23:19;;;;;;;23.58;15.15;;;;;;;;;;5066409;28;20288;-77
2023/01/28 09:25:46;;;;;;;27.60;16.58;;;;;;;;;;5069052;28;20219;-78
2023/01/28 09:28:14;;;;;;;21.10;12.77;;;;;;;;;;5054342;28;20549;-78
2023/01/28 09:30:41;;;;;;;61.42;29.10;;;;;;;;;;5070202;28;20194;-80
2023/01/28 09:33:11;;;;;;;82.82;34.08;;;;;;;;;;5056307;28;20200;-79
2023/01/28 09:35:40;;;;;;;24.58;15.00;;;;;;;;;;5067282;28;20189;-78
2023/01/28 09:38:07;;;;;;;23.65;15.93;;;;;;;;;;5059005;28;20182;-78
2023/01/28 09:40:37;;;;;;;15.45;10.10;;;;;;;;;;5066534;28;20575;-78
2023/01/28 09:43:23;;;;;;;17.33;10.48;;;;;;;;;;5068241;28;20197;-78
2023/01/28 09:45:51;;;;;;;21.38;11.18;;;;;;;;;;5059215;28;20243;-79
2023/01/28 09:48:23;;;;;;;18.48;10.75;;;;;;;;;;5056989;28;20715;-79
2023/01/28 09:50:52;;;;;;;16.55;10.10;;;;;;;;;;5069246;28;20200;-80
2023/01/28 09:53:21;;;;;;;17.23;10.10;;;;;;;;;;5066913;28;20193;-79
2023/01/28 09:55:49;;;;;;;16.10;10.25;;;;;;;;;;5054082;28;20194;-80
2023/01/28 09:58:17;;;;;;;18.15;11.40;;;;;;;;;;5064441;28;20196;-80
2023/01/28 10:00:48;;;;;;;20.00;12.85;;;;;;;;;;5069852;28;20564;-80
2023/01/28 10:03:35;;;;;;;17.05;9.88;;;;;;;;;;5054058;28;20548;-80
2023/01/28 10:06:13;;;;;;;15.80;9.45;;;;;;;;;;5066432;28;20650;-80
2023/01/28 10:08:55;;;;;;;15.13;8.75;;;;;;;;;;5066555;28;20185;-80
2023/01/28 10:11:29;;;;;;;13.50;9.38;;;;;;;;;;5064619;28;20182;-79
2023/01/28 10:14:01;;;;;;;17.30;11.15;;;;;;;;;;5066079;28;20190;-79
2023/01/28 10:16:32;;;;;;;15.48;9.88;;;;;;;;;;5060234;28;20199;-80
2023/01/28 10:19:02;;;;;;;17.95;11.98;;;;;;;;;;5069351;28;20648;-82
2023/01/28 10:21:34;;;;;;;15.55;9.95;;;;;;;;;;5062420;28;20601;-80
2023/01/28 10:24:04;;;;;;;14.18;8.00;;;;;;;;;;5069829;28;20650;-80
2023/01/28 10:26:34;;;;;;;12.27;7.60;;;;;;;;;;5068779;28;20663;-79
2023/01/28 10:29:05;;;;;;;17.98;9.75;;;;;;;;;;5053165;28;20637;-79
2023/01/28 10:31:39;;;;;;;43.50;26.05;;;;;;;;;;5054880;28;20597;-79
2023/01/28 10:34:07;;;;;;;17.80;11.50;;;;;;;;;;5044368;28;20609;-80
2023/01/28 10:36:36;;;;;;;24.05;15.65;;;;;;;;;;5066249;28;20187;-81
2023/01/28 10:39:05;;;;;;;28.45;20.35;;;;;;;;;;5062102;28;20281;-81
2023/01/28 10:41:33;;;;;;;23.88;15.55;;;;;;;;;;5058756;28;20221;-80
2023/01/28 10:44:00;;;;;;;22.88;15.27;;;;;;;;;;5056540;28;20206;-80
2023/01/28 10:46:29;;;;;;;21.25;14.25;;;;;;;;;;5047488;28;20240;-80
2023/01/28 10:49:00;;;;;;;17.02;12.27;;;;;;;;;;5034833;28;20197;-80
2023/01/28 10:51:35;;;;;;;16.70;13.10;;;;;;;;;;5036045;28;20605;-80
2023/01/28 10:54:06;;;;;;;14.23;10.05;;;;;;;;;;5035534;28;20201;-81
2023/01/28 10:56:35;;;;;;;11.35;8.45;;;;;;;;;;5048411;28;20207;-80
2023/01/28 10:59:07;;;;;;;13.65;8.63;;;;;;;;;;5037600;28;20282;-79
2023/01/28 11:01:42;;;;;;;15.00;11.05;;;;;;;;;;5032923;28;20226;-80
2023/01/28 11:04:16;;;;;;;14.82;10.43;;;;;;;;;;5039769;28;20205;-80
2023/01/28 11:06:44;;;;;;;11.18;8.93;;;;;;;;;;5047795;28;20215;-80
2023/01/28 11:09:23;;;;;;;11.55;7.00;;;;;;;;;;5034783;28;20191;-81
2023/01/28 11:11:51;;;;;;;11.40;6.78;;;;;;;;;;5031780;28;20225;-79
2023/01/28 11:14:22;;;;;;;10.10;6.97;;;;;;;;;;5030035;28;20202;-80
2023/01/28 11:16:51;;;;;;;10.98;6.82;;;;;;;;;;5047588;28;20190;-80
2023/01/28 11:19:20;;;;;;;11.15;7.28;;;;;;;;;;5035822;28;20199;-76
2023/01/28 11:21:52;;;;;;;21.08;15.50;;;;;;;;;;5032872;28;20703;-82
2023/01/28 11:24:21;;;;;;;11.90;8.68;;;;;;;;;;5051993;28;20227;-83
2023/01/28 11:26:51;;;;;;;9.20;6.93;;;;;;;;;;5047913;28;20192;-82
2023/01/28 11:29:23;;;;;;;18.83;12.15;;;;;;;;;;5050285;28;20278;-83
2023/01/28 11:31:51;;;;;;;17.85;11.15;;;;;;;;;;5044965;28;20189;-82
2023/01/28 11:34:22;;;;;;;19.05;15.45;;;;;;;;;;5037197;28;20590;-82
2023/01/28 11:36:53;;;;;;;21.48;17.23;;;;;;;;;;5045402;28;20180;-81
2023/01/28 11:39:23;;;;;;;20.30;14.75;;;;;;;;;;5037289;28;20221;-83
2023/01/28 11:41:52;;;;;;;11.25;7.55;;;;;;;;;;5037032;28;20222;-82
2023/01/28 11:44:24;;;;;;;9.52;7.20;;;;;;;;;;5034457;28;20549;-81
2023/01/28 11:46:57;;;;;;;9.35;7.85;;;;;;;;;;5045884;28;20215;-82
2023/01/28 11:49:30;;;;;;;10.00;7.40;;;;;;;;;;5051232;28;20194;-83
2023/01/28 11:52:00;;;;;;;11.40;9.77;;;;;;;;;;5049190;28;20218;-82
2023/01/28 11:54:38;;;;;;;9.02;7.32;;;;;;;;;;5047504;28;20277;-81
2023/01/28 11:57:14;;;;;;;8.55;6.55;;;;;;;;;;5046105;28;20186;-81
2023/01/28 11:59:55;;;;;;;8.32;6.70;;;;;;;;;;5034337;28;20202;-80
2023/01/28 12:02:31;;;;;;;8.57;7.68;;;;;;;;;;5043727;28;20186;-81
2023/01/28 12:05:07;;;;;;;8.82;6.20;;;;;;;;;;5045959;28;20190;-81
2023/01/28 12:07:39;;;;;;;103.83;62.57;;;;;;;;;;5044810;28;20179;-83
2023/01/28 12:10:11;;;;;;;13.23;7.97;;;;;;;;;;5050538;28;20453;-82
2023/01/28 12:12:48;;;;;;;8.15;6.20;;;;;;;;;;5046022;28;20187;-80
2023/01/28 12:15:45;;;;;;;9.20;7.20;;;;;;;;;;5052104;28;20202;-85
2023/01/28 12:18:19;;;;;;;12.83;8.60;;;;;;;;;;5007628;28;20820;-78
2023/01/28 12:20:51;;;;;;;16.73;13.00;;;;;;;;;;5051790;28;20506;-85
2023/01/28 12:23:26;;;;;;;10.70;8.87;;;;;;;;;;5051215;28;20438;-86
2023/01/28 12:26:00;;;;;;;9.77;8.03;;;;;;;;;;5052114;28;20446;-85
2023/01/28 12:28:34;;;;;;;11.80;9.90;;;;;;;;;;5034648;28;20422;-84
2023/01/28 12:31:09;;;;;;;13.67;11.30;;;;;;;;;;5047606;28;20818;-85
2023/01/28 12:33:50;;;;;;;11.67;9.10;;;;;;;;;;5037325;28;20445;-84
2023/01/28 12:36:26;;;;;;;16.13;11.73;;;;;;;;;;5048627;28;20517;-83
2023/01/28 12:39:00;;;;;;;11.73;8.40;;;;;;;;;;5049593;28;20443;-83
2023/01/28 12:41:30;;;;;;;13.13;9.73;;;;;;;;;;5050257;28;20529;-83
2023/01/28 12:44:01;;;;;;;16.85;12.70;;;;;;;;;;5037753;28;20630;-83
2023/01/28 12:46:38;;;;;;;12.88;9.80;;;;;;;;;;5047554;28;20241;-82
2023/01/28 12:49:07;;;;;;;10.30;7.68;;;;;;;;;;5034603;28;20199;-83
2023/01/28 12:51:40;;;;;;;9.68;7.05;;;;;;;;;;5037986;28;20194;-81
2023/01/28 12:54:13;;;;;;;13.57;9.35;;;;;;;;;;5051016;28;20275;-81
2023/01/28 12:56:42;;;;;;;12.45;8.77;;;;;;;;;;5034269;28;20237;-82
2023/01/28 12:59:15;;;;;;;10.85;8.52;;;;;;;;;;5034213;28;20202;-81
2023/01/28 13:01:46;;;;;;;15.18;10.50;;;;;;;;;;5048531;28;20703;-81
2023/01/28 13:04:18;;;;;;;13.82;8.57;;;;;;;;;;5051260;28;20194;-82
2023/01/28 13:06:48;;;;;;;13.77;9.65;;;;;;;;;;5048191;28;20189;-81
2023/01/28 13:09:18;;;;;;;16.08;9.73;;;;;;;;;;5033989;28;20197;-81
2023/01/28 13:11:46;;;;;;;11.23;8.65;;;;;;;;;;5031427;28;20195;-81
2023/01/28 13:14:16;;;;;;;16.80;10.93;;;;;;;;;;5042172;28;20196;-86
2023/01/28 13:16:44;;;;;;;19.40;12.75;;;;;;;;;;5049822;28;20640;-80
2023/01/28 13:19:22;;;;;;;19.55;12.27;;;;;;;;;;5049399;28;20199;-81
2023/01/28 13:21:50;;;;;;;11.20;9.05;;;;;;;;;;5033527;28;20358;-81
2023/01/28 13:24:22;;;;;;;11.65;8.55;;;;;;;;;;5033642;28;20200;-80
2023/01/28 13:26:50;;;;;;;13.70;9.35;;;;;;;;;;5033368;28;20283;-81
2023/01/28 13:29:22;;;;;;;12.43;8.18;;;;;;;;;;5034359;28;20712;-81
2023/01/28 13:31:50;;;;;;;13.00;9.25;;;;;;;;;;5034183;28;20214;-81
2023/01/28 13:34:31;;;;;;;12.00;7.97;;;;;;;;;;5034497;28;20254;-82
2023/01/28 13:37:00;;;;;;;10.70;8.20;;;;;;;;;;5033435;28;20199;-81
2023/01/28 13:39:29;;;;;;;11.18;7.22;;;;;;;;;;5032400;28;20183;-82
2023/01/28 13:41:57;;;;;;;11.13;6.82;;;;;;;;;;5033230;28;20226;-80
2023/01/28 13:44:30;;;;;;;9.68;6.10;;;;;;;;;;5033263;28;20281;-81
2023/01/28 13:47:00;;;;;;;14.60;7.93;;;;;;;;;;5058924;28;20260;-81
2023/01/28 13:49:31;;;;;;;13.00;8.32;;;;;;;;;;5067806;28;20217;-80
2023/01/28 13:52:01;;;;;;;11.93;8.75;;;;;;;;;;5053189;28;20198;-81
2023/01/28 13:54:30;;;;;;;15.65;11.38;;;;;;;;;;5059880;28;20258;-82
2023/01/28 13:57:08;;;;;;;14.15;10.95;;;;;;;;;;5055116;28;20252;-81
2023/01/28 13:59:43;;;;;;;10.80;8.15;;;;;;;;;;5052975;28;20202;-81
2023/01/28 14:02:21;;;;;;;16.10;10.02;;;;;;;;;;5052029;28;20264;-79
2023/01/28 14:04:57;;;;;;;17.52;11.45;;;;;;;;;;5056497;28;20190;-81
2023/01/28 14:07:49;;;;;;;12.23;7.55;;;;;;;;;;5049348;28;20262;-80
2023/01/28 14:10:35;;;;;;;19.85;14.02;;;;;;;;;;5001059;28;20228;-80
2023/01/28 14:13:14;;;;;;;15.90;11.45;;;;;;;;;;5063343;28;20198;-81
2023/01/28 14:15:55;;;;;;;15.85;11.45;;;;;;;;;;5054844;28;20182;-80
2023/01/28 14:18:27;;;;;;;11.65;9.13;;;;;;;;;;5051916;28;20200;-81
2023/01/28 14:20:57;;;;;;;13.90;10.55;;;;;;;;;;5067597;28;20211;-81
2023/01/28 14:23:30;;;;;;;16.13;12.13;;;;;;;;;;5058790;28;20222;-79
2023/01/28 14:26:10;;;;;;;15.10;11.40;;;;;;;;;;5055997;28;20194;-81
2023/01/28 14:28:42;;;;;;;13.65;8.48;;;;;;;;;;5056012;28;20183;-81
2023/01/28 14:31:14;;;;;;;11.07;8.35;;;;;;;;;;5048004;28;20206;-78
2023/01/28 14:33:47;;;;;;;14.82;11.43;;;;;;;;;;5049432;28;20280;-80
2023/01/28 14:36:15;;;;;;;14.15;10.27;;;;;;;;;;5050329;28;20229;-79
2023/01/28 14:38:45;;;;;;;12.73;9.00;;;;;;;;;;5054675;28;20190;-80
2023/01/28 14:41:21;;;;;;;12.93;8.98;;;;;;;;;;5066762;28;20585;-81
2023/01/28 14:43:48;;;;;;;17.15;11.02;;;;;;;;;;5053843;28;20240;-81
2023/01/28 14:46:25;;;;;;;12.60;9.52;;;;;;;;;;5065189;28;20271;-80
2023/01/28 14:49:02;;;;;;;13.40;8.25;;;;;;;;;;5057804;28;20190;-79
2023/01/28 14:51:45;;;;;;;11.68;7.40;;;;;;;;;;5051605;28;20202;-80
2023/01/28 14:54:24;;;;;;;11.88;6.90;;;;;;;;;;5054777;28;20192;-80
2023/01/28 14:57:01;;;;;;;14.30;7.03;;;;;;;;;;5052154;28;20189;-81
2023/01/28 14:59:31;;;;;;;11.77;8.30;;;;;;;;;;5050959;28;20285;-79
2023/01/28 15:02:00;;;;;;;11.90;7.68;;;;;;;;;;5063334;28;20228;-80
2023/01/28 15:04:29;;;;;;;10.57;7.35;;;;;;;;;;5050930;28;20940;-80
2023/01/28 15:07:02;;;;;;;13.68;8.48;;;;;;;;;;5052471;28;20193;-81